Time;durP1;ratioP1;P1;durP2;ratioP2;P2;SDS_P1;SDS_P2;PMS_P1;PMS_P2;Temp;Humidity;BMP_temperature;BMP_pressure;BME280_temperature;BME280_humidity;BME280_pressure;Samples;Min_cycle;Max_cycle;Signal;HPM_P1;HPM_P2
2021/07/03 00:02:09;;;;;;;;;0.75;0.75;;;;;27.59;40.19;100638.50;5056955;28;45576;-67
2021/07/03 00:04:37;;;;;;;;;0.00;0.00;;;;;27.58;40.07;100631.31;5057053;28;45450;-67
2021/07/03 00:07:03;;;;;;;;;1.00;1.00;;;;;27.57;40.46;100624.97;5039506;28;45867;-67
2021/07/03 00:09:28;;;;;;;;;0.75;0.75;;;;;27.57;40.00;100635.91;5057200;28;45848;-67
2021/07/03 00:11:54;;;;;;;;;0.50;0.50;;;;;27.58;39.79;100636.78;5056854;28;45460;-67
2021/07/03 00:14:19;;;;;;;;;0.00;0.00;;;;;27.56;39.99;100631.38;5056642;28;45373;-67
2021/07/03 00:16:45;;;;;;;;;1.25;0.75;;;;;27.55;39.89;100637.81;5038748;28;45397;-67
2021/07/03 00:19:10;;;;;;;;;0.00;0.00;;;;;27.54;40.50;100636.94;5038780;28;46577;-67
2021/07/03 00:21:37;;;;;;;;;1.33;1.33;;;;;27.53;40.32;100639.75;5038190;28;45726;-67
2021/07/03 00:24:03;;;;;;;;;2.67;2.67;;;;;27.50;40.39;100645.41;5038551;28;44891;-66
2021/07/03 00:26:28;;;;;;;;;2.25;0.25;;;;;27.44;40.59;100640.31;5056803;28;45553;-67
2021/07/03 00:28:54;;;;;;;;;1.00;1.00;;;;;27.42;40.91;100642.25;5056240;28;45768;-66
2021/07/03 00:31:20;;;;;;;;;0.00;0.00;;;;;27.41;40.41;100635.91;5038199;28;45451;-67
2021/07/03 00:33:46;;;;;;;;;1.00;0.00;;;;;27.40;40.84;100633.25;5057055;28;45366;-66
2021/07/03 00:36:11;;;;;;;;;0.00;0.00;;;;;27.34;40.83;100616.25;5056500;28;45401;-67
2021/07/03 00:38:37;;;;;;;;;0.50;0.50;;;;;27.38;40.89;100629.72;5056635;28;45481;-66
2021/07/03 00:41:02;;;;;;;;;0.00;0.00;;;;;27.38;40.58;100629.72;5056484;28;45400;-67
2021/07/03 00:43:28;;;;;;;;;0.00;0.00;;;;;27.38;40.60;100635.19;5056179;28;45787;-67
2021/07/03 00:45:53;;;;;;;;;0.00;0.00;;;;;27.33;40.57;100628.16;5038360;28;45474;-67
2021/07/03 00:48:19;;;;;;;;;1.00;1.00;;;;;27.36;40.40;100632.53;5056213;28;45513;-67
2021/07/03 00:50:45;;;;;;;;;0.00;0.00;;;;;27.36;40.69;100620.75;5056240;28;45804;-67
2021/07/03 00:53:10;;;;;;;;;0.00;0.00;;;;;27.34;40.48;100623.56;5055935;28;45383;-68
2021/07/03 00:55:37;;;;;;;;;1.00;1.00;;;;;27.32;40.76;100612.72;5056314;28;45637;-67
2021/07/03 00:58:03;;;;;;;;;0.00;0.00;;;;;27.33;40.75;100619.97;5037622;28;47078;-67
2021/07/03 01:00:28;;;;;;;;;0.00;0.00;;;;;27.33;40.89;100617.22;5056592;28;45473;-67
2021/07/03 01:02:54;;;;;;;;;0.00;0.00;;;;;27.32;40.75;100618.19;5055998;28;45571;-67
2021/07/03 01:05:19;;;;;;;;;0.25;0.25;;;;;27.32;40.71;100612.72;5037637;28;45525;-67
2021/07/03 01:07:45;;;;;;;;;0.00;0.00;;;;;27.33;40.53;100606.31;5054950;28;45730;-67
2021/07/03 01:10:22;;;;;;;;;0.00;0.00;;;;;27.33;40.85;100609.03;5037653;28;45541;-67
2021/07/03 01:12:49;;;;;;;;;0.00;0.00;;;;;27.33;40.69;100609.03;5037575;28;45765;-67
2021/07/03 01:15:14;;;;;;;;;0.00;0.00;;;;;27.32;41.06;100600.91;5056493;28;45355;-67
2021/07/03 01:17:40;;;;;;;;;0.50;0.50;;;;;27.32;41.00;100598.19;5037156;28;47292;-67
2021/07/03 01:20:08;;;;;;;;;1.00;1.00;;;;;27.32;40.91;100593.59;5056089;28;45814;-66
2021/07/03 01:22:41;;;;;;;;;0.00;0.00;;;;;27.31;40.68;100591.84;5056213;28;45803;-67
2021/07/03 01:25:08;;;;;;;;;0.75;0.75;;;;;27.31;40.88;100597.31;5055886;28;45647;-67
2021/07/03 01:27:34;;;;;;;;;0.00;0.00;;;;;27.30;40.83;100591.94;5055170;28;45601;-66
2021/07/03 01:30:00;;;;;;;;;0.50;0.50;;;;;27.31;41.29;100597.31;5055235;28;45517;-66
2021/07/03 01:32:26;;;;;;;;;0.75;0.75;;;;;27.30;41.09;100598.28;5055469;28;45521;-67
2021/07/03 01:34:55;;;;;;;;;0.75;0.75;;;;;27.31;40.98;100596.44;5055740;28;45512;-66
2021/07/03 01:37:26;;;;;;;;;0.75;0.75;;;;;27.27;41.28;100598.47;5054929;28;45467;-66
2021/07/03 01:39:52;;;;;;;;;0.25;0.25;;;;;27.30;40.82;100592.81;5055159;28;45463;-66
2021/07/03 01:42:18;;;;;;;;;0.00;0.00;;;;;27.29;41.14;100595.66;5055381;28;45474;-66
2021/07/03 01:44:45;;;;;;;;;0.00;0.00;;;;;27.28;41.08;100586.56;5055591;28;44893;-66
2021/07/03 01:47:10;;;;;;;;;1.00;1.00;;;;;27.26;41.05;100585.75;5055146;28;45390;-66
2021/07/03 01:49:39;;;;;;;;;0.00;0.00;;;;;27.27;41.34;100594.88;5055136;28;45405;-66
2021/07/03 01:52:06;;;;;;;;;1.00;1.00;;;;;27.25;40.94;100583.16;5055099;28;45489;-66
2021/07/03 01:54:32;;;;;;;;;1.00;1.00;;;;;27.25;41.12;100581.28;5055147;28;45533;-66
2021/07/03 01:56:58;;;;;;;;;1.33;0.33;;;;;27.25;41.40;100588.63;5054574;28;45476;-66
2021/07/03 01:59:25;;;;;;;;;0.50;0.50;;;;;27.25;40.95;100583.16;5055252;28;45511;-66
2021/07/03 02:01:51;;;;;;;;;0.00;0.00;;;;;27.25;41.14;100586.75;5054926;28;45485;-66
2021/07/03 02:04:16;;;;;;;;;0.75;0.75;;;;;27.23;41.53;100591.41;5055023;28;45358;-66
2021/07/03 02:06:42;;;;;;;;;1.00;0.00;;;;;27.21;41.10;100585.13;5054696;28;45388;-66
2021/07/03 02:09:07;;;;;;;;;0.25;0.25;;;;;27.22;41.17;100586.88;5054620;28;45502;-65
2021/07/03 02:11:33;;;;;;;;;0.00;0.00;;;;;27.19;41.58;100581.63;5036671;28;45469;-66
2021/07/03 02:13:58;;;;;;;;;2.00;0.00;;;;;27.18;41.16;100578.97;5054957;28;45750;-66
2021/07/03 02:16:23;;;;;;;;;0.00;0.00;;;;;27.18;41.34;100582.56;5054457;28;45512;-67
2021/07/03 02:18:49;;;;;;;;;0.50;0.50;;;;;27.19;41.19;100583.44;5054556;28;44869;-66
2021/07/03 02:21:14;;;;;;;;;0.00;0.00;;;;;27.18;41.20;100584.44;5054562;28;45910;-66
2021/07/03 02:23:40;;;;;;;;;0.00;0.00;;;;;27.17;41.37;100588.13;5054382;28;45492;-67
2021/07/03 02:26:06;;;;;;;;;0.00;0.00;;;;;27.17;41.68;100585.38;5054582;28;46292;-66
2021/07/03 02:28:31;;;;;;;;;0.00;0.00;;;;;27.16;41.55;100587.25;5054172;28;45567;-66
2021/07/03 02:30:57;;;;;;;;;0.75;0.75;;;;;27.14;41.71;100589.19;5053970;28;45377;-66
2021/07/03 02:33:22;;;;;;;;;0.00;0.00;;;;;27.12;41.80;100585.66;5036006;28;45505;-66
2021/07/03 02:35:48;;;;;;;;;0.00;0.00;;;;;27.12;41.80;100591.13;5054172;28;46333;-66
2021/07/03 02:38:13;;;;;;;;;1.00;1.00;;;;;27.11;41.52;100583.91;5054352;28;45454;-66
2021/07/03 02:40:38;;;;;;;;;0.50;0.50;;;;;27.10;41.83;100587.59;5054343;28;45389;-66
2021/07/03 02:43:04;;;;;;;;;0.00;0.00;;;;;27.09;41.72;100585.84;5054340;28;45414;-66
2021/07/03 02:45:29;;;;;;;;;0.00;0.00;;;;;27.10;41.66;100579.41;5035927;28;45455;-66
2021/07/03 02:47:55;;;;;;;;;0.00;0.00;;;;;27.10;41.48;100576.69;5035722;28;45462;-66
2021/07/03 02:50:21;;;;;;;;;0.00;0.00;;;;;27.10;41.88;100576.69;5053968;28;45925;-67
2021/07/03 02:52:46;;;;;;;;;0.00;0.00;;;;;27.11;41.92;100578.44;5054225;28;45424;-66
2021/07/03 02:55:13;;;;;;;;;1.00;0.00;;;;;27.10;41.62;100572.09;5053796;28;45401;-66
2021/07/03 02:57:39;;;;;;;;;0.00;0.00;;;;;27.10;41.98;100573.94;5054109;28;45511;-67
2021/07/03 03:00:13;;;;;;;;;0.00;0.00;;;;;27.08;41.52;100571.28;5035824;28;45464;-67
2021/07/03 03:02:39;;;;;;;;;0.75;0.75;;;;;27.07;41.67;100572.28;5054182;28;45433;-67
2021/07/03 03:05:06;;;;;;;;;0.00;0.00;;;;;27.07;41.70;100572.28;5054003;28;46600;-67
2021/07/03 03:07:34;;;;;;;;;0.00;0.00;;;;;27.08;41.64;100564.97;5053849;28;45401;-67
2021/07/03 03:10:00;;;;;;;;;0.00;0.00;;;;;27.07;41.46;100565.94;5054164;28;45423;-67
2021/07/03 03:12:25;;;;;;;;;0.00;0.00;;;;;27.05;41.94;100568.75;5019524;28;44833;-67
2021/07/03 03:14:51;;;;;;;;;0.00;0.00;;;;;27.06;41.94;100567.78;5053731;28;46408;-67
2021/07/03 03:17:16;;;;;;;;;0.00;0.00;;;;;27.07;42.17;100574.13;5053846;28;45401;-67
2021/07/03 03:19:41;;;;;;;;;0.00;0.00;;;;;27.06;41.76;100586.88;5054121;28;45355;-67
2021/07/03 03:22:07;;;;;;;;;0.00;0.00;;;;;27.06;41.54;100586.00;5054010;28;45528;-67
2021/07/03 03:24:32;;;;;;;;;0.00;0.00;;;;;27.05;41.59;100579.69;5053493;28;45395;-67
2021/07/03 03:26:59;;;;;;;;;0.00;0.00;;;;;27.05;41.64;100581.53;5053705;28;45645;-66
2021/07/03 03:29:24;;;;;;;;;0.00;0.00;;;;;27.04;41.88;100577.91;5034578;28;45562;-66
2021/07/03 03:31:50;;;;;;;;;0.75;0.00;;;;;27.04;41.87;100568.84;5053411;28;45425;-66
2021/07/03 03:34:15;;;;;;;;;0.00;0.00;;;;;27.02;41.95;100578.97;5053368;28;45504;-66
2021/07/03 03:36:40;;;;;;;;;0.00;0.00;;;;;27.00;42.05;100575.44;5053385;28;45521;-67
2021/07/03 03:39:07;;;;;;;;;0.50;0.00;;;;;26.96;41.81;100571.13;5053784;28;45860;-66
2021/07/03 03:41:33;;;;;;;;;0.00;0.00;;;;;26.97;41.85;100576.50;5035675;28;45420;-67
2021/07/03 03:43:58;;;;;;;;;1.00;0.00;;;;;26.94;42.02;100572.13;5034930;28;47034;-66
2021/07/03 03:46:24;;;;;;;;;0.00;0.00;;;;;26.94;42.40;100568.47;5053575;28;45471;-66
2021/07/03 03:48:50;;;;;;;;;0.00;0.00;;;;;26.93;41.91;100573.06;5053295;28;45416;-66
2021/07/03 03:51:15;;;;;;;;;0.00;0.00;;;;;26.93;42.30;100577.66;5053460;28;45359;-68
2021/07/03 03:53:41;;;;;;;;;0.00;0.00;;;;;26.94;42.17;100579.41;5053350;28;45462;-66
2021/07/03 03:56:07;;;;;;;;;0.00;0.00;;;;;26.93;42.50;100580.38;5053304;28;45520;-67
2021/07/03 03:58:32;;;;;;;;;0.00;0.00;;;;;26.93;42.21;100583.09;5035160;28;45735;-67
2021/07/03 04:00:58;;;;;;;;;0.00;0.00;;;;;26.91;42.07;100588.66;5053554;28;45496;-66
2021/07/03 04:03:25;;;;;;;;;0.00;0.00;;;;;26.89;42.05;100579.66;5052995;28;45442;-67
2021/07/03 04:05:50;;;;;;;;;0.00;0.00;;;;;26.89;42.47;100585.13;5053280;28;45554;-67
2021/07/03 04:08:15;;;;;;;;;0.00;0.00;;;;;26.88;42.19;100587.94;5053637;28;45483;-66
2021/07/03 04:10:41;;;;;;;;;0.00;0.00;;;;;26.88;42.32;100594.25;5053495;28;45468;-66
2021/07/03 04:13:06;;;;;;;;;0.00;0.00;;;;;26.87;42.46;100592.53;5052714;28;45486;-66
2021/07/03 04:15:32;;;;;;;;;0.00;0.00;;;;;26.80;42.16;100579.31;5052613;28;45488;-66
2021/07/03 04:17:57;;;;;;;;;0.00;0.00;;;;;26.86;42.53;100596.19;5034831;28;45433;-66
2021/07/03 04:20:23;;;;;;;;;0.00;0.00;;;;;26.85;42.61;100591.72;5034840;28;45448;-66
2021/07/03 04:22:48;;;;;;;;;0.00;0.00;;;;;26.86;42.29;100590.75;5052693;28;45952;-66
2021/07/03 04:25:19;;;;;;;;;0.00;0.00;;;;;26.85;42.48;100589.00;5053212;28;45388;-67
2021/07/03 04:27:45;;;;;;;;;0.00;0.00;;;;;26.84;42.74;100587.22;5053162;28;45432;-67
2021/07/03 04:30:11;;;;;;;;;0.25;0.25;;;;;26.86;42.53;100593.47;5052617;28;45534;-67
2021/07/03 04:32:37;;;;;;;;;1.00;1.00;;;;;26.85;42.60;100594.44;5033982;28;46363;-67
2021/07/03 04:35:04;;;;;;;;;0.00;0.00;;;;;26.83;42.50;100590.06;5052757;28;45372;-67
2021/07/03 04:37:31;;;;;;;;;0.00;0.00;;;;;26.83;42.68;100601.84;5052413;28;45398;-65
2021/07/03 04:39:56;;;;;;;;;0.00;0.00;;;;;26.81;42.55;100592.00;5052869;28;45694;-67
2021/07/03 04:42:22;;;;;;;;;0.25;0.25;;;;;26.83;42.58;100595.50;5054309;28;45388;-66
2021/07/03 04:44:47;;;;;;;;;0.00;0.00;;;;;26.83;42.83;100593.66;5055977;28;45359;-67
2021/07/03 04:47:13;;;;;;;;;0.25;0.00;;;;;26.84;42.35;100597.25;5055995;28;45692;-66
2021/07/03 04:49:38;;;;;;;;;0.00;0.00;;;;;26.84;42.24;100592.69;5056395;28;45549;-66
2021/07/03 04:52:04;;;;;;;;;0.00;0.00;;;;;26.86;42.32;100596.19;5056236;28;45417;-66
2021/07/03 04:54:30;;;;;;;;;0.00;0.00;;;;;26.87;42.70;100597.09;5037690;28;45516;-66
2021/07/03 04:57:07;;;;;;;;;0.00;0.00;;;;;26.87;42.68;100597.97;5055927;28;45507;-66
2021/07/03 04:59:39;;;;;;;;;0.00;0.00;;;;;26.87;42.63;100592.53;5056137;28;45380;-66
2021/07/03 05:02:07;;;;;;;;;0.00;0.00;;;;;26.88;42.51;100598.84;5055517;28;45492;-66
2021/07/03 05:04:33;;;;;;;;;0.00;0.00;;;;;26.82;42.77;100582.81;5037081;28;45442;-66
2021/07/03 05:06:58;;;;;;;;;0.00;0.00;;;;;26.88;42.75;100590.66;5055807;28;45386;-66
2021/07/03 05:09:24;;;;;;;;;0.00;0.00;;;;;26.85;42.54;100586.25;5055760;28;45537;-66
2021/07/03 05:11:49;;;;;;;;;0.00;0.00;;;;;26.89;42.38;100589.72;5055623;28;45417;-66
2021/07/03 05:14:15;;;;;;;;;0.00;0.00;;;;;26.91;42.25;100587.78;5055493;28;45425;-66
2021/07/03 05:16:40;;;;;;;;;0.00;0.00;;;;;26.91;42.44;100591.38;5055588;28;45743;-66
2021/07/03 05:19:05;;;;;;;;;0.00;0.00;;;;;26.90;42.82;100586.88;5055869;28;45448;-66
2021/07/03 05:21:31;;;;;;;;;0.00;0.00;;;;;26.89;42.45;100585.13;5055638;28;46141;-66
2021/07/03 05:23:57;;;;;;;;;0.00;0.00;;;;;26.93;42.30;100585.84;5055270;28;45428;-66
2021/07/03 05:26:23;;;;;;;;;0.00;0.00;;;;;26.92;42.53;100589.53;5055789;28;45907;-68
2021/07/03 05:28:48;;;;;;;;;0.00;0.00;;;;;26.94;42.40;100591.22;5037210;28;45532;-66
2021/07/03 05:31:20;;;;;;;;;0.00;0.00;;;;;26.94;42.57;100591.22;5054950;28;45917;-66
2021/07/03 05:33:45;;;;;;;;;0.00;0.00;;;;;26.95;42.48;100592.09;5055132;28;45379;-66
2021/07/03 05:36:10;;;;;;;;;0.00;0.00;;;;;26.94;42.45;100593.03;5055494;28;45733;-67
2021/07/03 05:38:41;;;;;;;;;0.00;0.00;;;;;26.93;42.72;100575.78;5037527;28;45363;-67
2021/07/03 05:41:07;;;;;;;;;0.00;0.00;;;;;26.93;42.78;100574.91;5037123;28;45406;-66
2021/07/03 05:43:32;;;;;;;;;0.00;0.00;;;;;26.94;42.06;100577.56;5054987;28;45427;-66
2021/07/03 05:45:58;;;;;;;;;0.00;0.00;;;;;26.98;42.21;100588.28;5055078;28;45765;-66
2021/07/03 05:48:23;;;;;;;;;0.00;0.00;;;;;26.98;42.73;100597.34;5055135;28;45342;-66
2021/07/03 05:50:51;;;;;;;;;0.00;0.00;;;;;26.97;42.91;100598.34;5055004;28;45482;-66
2021/07/03 05:53:16;;;;;;;;;0.00;0.00;;;;;26.98;42.17;100591.91;5054487;28;45454;-67
2021/07/03 05:55:42;;;;;;;;;0.00;0.00;;;;;27.01;42.64;100591.75;5054868;28;45355;-67
2021/07/03 05:58:07;;;;;;;;;0.00;0.00;;;;;27.02;42.25;100595.34;5055209;28;45442;-67
2021/07/03 06:00:33;;;;;;;;;0.00;0.00;;;;;27.02;42.21;100596.22;5036513;28;45678;-66
2021/07/03 06:02:59;;;;;;;;;1.33;0.00;;;;;27.05;42.29;100596.06;5054226;28;45548;-66
2021/07/03 06:05:25;;;;;;;;;0.00;0.00;;;;;27.06;42.57;100599.66;5054778;28;45418;-66
2021/07/03 06:07:50;;;;;;;;;0.67;0.67;;;;;27.05;42.36;100595.19;5054865;28;45465;-66
2021/07/03 06:10:15;;;;;;;;;0.67;0.67;;;;;27.07;42.61;100598.72;5054536;28;45922;-66
2021/07/03 06:12:41;;;;;;;;;0.00;0.00;;;;;27.06;42.24;100608.72;5054491;28;45670;-66
2021/07/03 06:15:08;;;;;;;;;0.00;0.00;;;;;27.09;42.49;100607.69;5054260;28;45503;-66
2021/07/03 06:17:33;;;;;;;;;0.00;0.00;;;;;27.10;42.64;100606.69;5036801;28;45748;-66
2021/07/03 06:19:59;;;;;;;;;0.00;0.00;;;;;27.10;42.41;100587.59;5054533;28;46065;-68
2021/07/03 06:22:25;;;;;;;;;0.25;0.00;;;;;27.13;41.99;100595.63;5054358;28;45548;-67
2021/07/03 06:24:50;;;;;;;;;0.75;0.75;;;;;27.14;42.83;100595.50;5054583;28;45697;-67
2021/07/03 06:27:17;;;;;;;;;0.00;0.00;;;;;27.17;42.41;100602.66;5054803;28;45342;-67
2021/07/03 06:29:43;;;;;;;;;1.00;1.00;;;;;27.16;42.47;100609.09;5053918;28;44950;-65
2021/07/03 06:32:08;;;;;;;;;0.00;0.00;;;;;27.17;42.72;100619.03;5054408;28;45511;-66
2021/07/03 06:34:34;;;;;;;;;1.00;1.00;;;;;27.17;42.36;100620.88;5054658;28;45569;-66
2021/07/03 06:36:59;;;;;;;;;0.00;0.00;;;;;27.17;42.52;100615.41;5054652;28;45432;-67
2021/07/03 06:39:26;;;;;;;;;0.75;0.75;;;;;27.19;42.37;100616.19;5053953;28;46082;-67
2021/07/03 06:41:52;;;;;;;;;0.00;0.00;;;;;27.19;41.98;100617.13;5054040;28;45530;-67
2021/07/03 06:44:18;;;;;;;;;0.00;0.00;;;;;27.17;42.13;100610.84;5054180;28;45502;-66
2021/07/03 06:46:45;;;;;;;;;0.75;0.75;;;;;27.18;42.54;100598.94;5054425;28;45392;-66
2021/07/03 06:49:11;;;;;;;;;2.00;2.00;;;;;27.21;42.08;100611.53;5054027;28;45513;-67
2021/07/03 06:51:38;;;;;;;;;2.50;2.50;;;;;27.22;42.60;100618.78;5054006;28;45375;-67
2021/07/03 06:54:04;;;;;;;;;0.50;0.50;;;;;27.22;42.32;100608.72;5053963;28;45432;-67
2021/07/03 06:56:30;;;;;;;;;0.25;0.25;;;;;27.23;42.25;100617.78;5054068;28;45540;-66
2021/07/03 06:59:01;;;;;;;;;0.00;0.00;;;;;27.24;41.99;100612.28;5035736;28;45828;-67
2021/07/03 07:01:27;;;;;;;;;0.75;0.75;;;;;27.23;42.25;100610.53;5046030;28;45433;-66
2021/07/03 07:03:53;;;;;;;;;1.50;1.50;;;;;27.26;41.88;100615.81;5053109;28;45436;-66
2021/07/03 07:06:19;;;;;;;;;0.00;0.00;;;;;27.28;42.22;100616.59;5053788;28;45487;-67
2021/07/03 07:08:44;;;;;;;;;0.00;0.00;;;;;27.28;42.08;100619.31;5053356;28;45795;-67
2021/07/03 07:11:10;;;;;;;;;0.00;0.00;;;;;27.31;41.93;100630.09;5053547;28;45515;-66
2021/07/03 07:13:35;;;;;;;;;0.33;0.33;;;;;27.33;41.71;100639.06;5054108;28;45737;-66
2021/07/03 07:16:01;;;;;;;;;0.00;0.00;;;;;27.29;41.89;100632.03;5053798;28;45464;-66
2021/07/03 07:18:26;;;;;;;;;0.67;0.67;;;;;27.35;42.17;100633.53;5053298;28;45678;-67
2021/07/03 07:20:52;;;;;;;;;1.67;0.33;;;;;27.34;42.27;100646.28;5053607;28;45457;-67
2021/07/03 07:23:17;;;;;;;;;1.00;1.00;;;;;27.37;42.00;100649.81;5053611;28;45438;-66
2021/07/03 07:26:05;;;;;;;;;0.00;0.00;;;;;27.36;41.83;100653.53;5053228;28;45403;-66
2021/07/03 07:28:30;;;;;;;;;0.00;0.00;;;;;27.37;42.25;100655.25;5053287;28;46137;-66
2021/07/03 07:31:02;;;;;;;;;0.00;0.00;;;;;27.38;41.77;100648.84;5053431;28;45885;-66
2021/07/03 07:33:27;;;;;;;;;1.33;1.33;;;;;27.39;42.18;100656.97;5053524;28;45428;-66
2021/07/03 07:35:52;;;;;;;;;0.00;0.00;;;;;27.41;41.68;100645.94;5053880;28;45418;-67
2021/07/03 07:38:18;;;;;;;;;0.00;0.00;;;;;27.43;42.17;100646.72;5053105;28;46336;-66
2021/07/03 07:40:43;;;;;;;;;1.00;1.00;;;;;27.45;42.16;100652.97;5053369;28;45686;-66
2021/07/03 07:43:09;;;;;;;;;1.00;0.00;;;;;27.45;42.40;100648.41;5053185;28;45409;-66
2021/07/03 07:45:35;;;;;;;;;0.00;0.00;;;;;27.46;41.56;100661.09;5034843;28;45332;-66
2021/07/03 07:48:01;;;;;;;;;0.00;0.00;;;;;27.48;41.87;100669.19;5053396;28;45452;-67
2021/07/03 07:50:26;;;;;;;;;1.00;1.00;;;;;27.48;42.08;100667.34;5052855;28;44990;-65
2021/07/03 07:52:52;;;;;;;;;0.75;0.75;;;;;27.49;41.63;100663.66;5053496;28;45335;-66
2021/07/03 07:55:17;;;;;;;;;0.00;0.00;;;;;27.53;41.89;100667.06;5053133;28;45432;-66
2021/07/03 07:57:42;;;;;;;;;2.25;0.75;;;;;27.53;42.28;100661.59;5052897;28;45468;-66
2021/07/03 08:00:08;;;;;;;;;0.00;0.00;;;;;27.51;41.91;100669.91;5018156;28;45629;-67
2021/07/03 08:02:34;;;;;;;;;2.75;2.75;;;;;27.51;41.55;100666.28;5053394;28;44954;-67
2021/07/03 08:04:59;;;;;;;;;0.00;0.00;;;;;27.50;41.92;100664.53;5053262;28;45393;-67
2021/07/03 08:07:24;;;;;;;;;0.00;0.00;;;;;27.51;41.92;100663.53;5053156;28;45702;-67
2021/07/03 08:09:50;;;;;;;;;1.00;1.00;;;;;27.50;41.92;100667.25;5052749;28;45517;-67
2021/07/03 08:12:16;;;;;;;;;0.67;0.67;;;;;27.52;42.05;100676.25;5053374;28;45339;-66
2021/07/03 08:14:42;;;;;;;;;0.75;0.75;;;;;27.51;41.70;100671.72;5053080;28;45461;-67
2021/07/03 08:17:07;;;;;;;;;2.00;2.00;;;;;27.50;42.06;100678.19;5055787;28;46261;-67
2021/07/03 08:19:32;;;;;;;;;0.67;0.67;;;;;27.49;41.36;100670.94;5056595;28;45406;-67
2021/07/03 08:21:58;;;;;;;;;0.00;0.00;;;;;27.49;41.37;100669.13;5056702;28;45425;-66
2021/07/03 08:24:28;;;;;;;;;2.33;2.33;;;;;27.46;41.70;100666.53;5056816;28;45446;-66
2021/07/03 08:26:53;;;;;;;;;4.00;4.00;;;;;27.44;42.17;100662.16;5056456;28;46105;-67
2021/07/03 08:29:18;;;;;;;;;0.67;0.67;;;;;27.41;42.10;100671.41;5056430;28;45529;-67
2021/07/03 08:31:50;;;;;;;;;0.33;0.33;;;;;27.39;41.77;100667.88;5055936;28;45649;-66
2021/07/03 08:34:16;;;;;;;;;1.25;1.25;;;;;27.31;41.95;100664.72;5056477;28;45572;-66
2021/07/03 08:36:42;;;;;;;;;2.00;2.00;;;;;27.34;42.06;100664.53;5055945;28;46205;-66
2021/07/03 08:39:07;;;;;;;;;0.00;0.00;;;;;27.36;42.19;100676.25;5056035;28;45446;-66
2021/07/03 08:41:35;;;;;;;;;0.00;0.00;;;;;27.34;42.22;100675.44;5038027;28;45911;-66
2021/07/03 08:44:01;;;;;;;;;1.50;1.50;;;;;27.33;41.87;100674.56;5056479;28;45451;-66
2021/07/03 08:46:26;;;;;;;;;0.00;0.00;;;;;27.32;41.86;100678.25;5055964;28;45375;-66
2021/07/03 08:48:55;;;;;;;;;0.00;0.00;;;;;27.31;42.40;100679.25;5056140;28;45492;-67
2021/07/03 08:51:22;;;;;;;;;0.00;0.00;;;;;27.31;42.20;100681.97;5056336;28;45460;-67
2021/07/03 08:53:51;;;;;;;;;1.00;1.00;;;;;27.31;42.10;100687.44;5056094;28;45790;-67
2021/07/03 08:56:18;;;;;;;;;1.00;1.00;;;;;27.32;41.87;100681.00;5055663;28;45440;-66
2021/07/03 08:58:43;;;;;;;;;2.00;2.00;;;;;27.31;42.18;100683.84;5055882;28;45587;-66
2021/07/03 09:01:10;;;;;;;;;0.25;0.25;;;;;27.30;42.18;100682.94;5037777;28;45391;-67
2021/07/03 09:03:36;;;;;;;;;0.00;0.00;;;;;27.26;42.12;100662.22;5056104;28;45442;-67
2021/07/03 09:06:06;;;;;;;;;0.00;0.00;;;;;27.33;42.35;100670.97;5055592;28;45449;-67
2021/07/03 09:08:32;;;;;;;;;2.00;2.00;;;;;27.34;42.32;100673.59;5055709;28;45390;-67
2021/07/03 09:11:04;;;;;;;;;0.00;0.00;;;;;27.36;42.46;100686.28;5055554;28;45450;-67
2021/07/03 09:13:31;;;;;;;;;1.00;1.00;;;;;27.36;42.19;100687.16;5055967;28;45429;-67
2021/07/03 09:15:57;;;;;;;;;0.00;0.00;;;;;27.37;41.85;100682.56;5054985;28;45525;-67
2021/07/03 09:18:25;;;;;;;;;0.75;0.75;;;;;27.36;42.12;100678.09;5055654;28;45807;-67
2021/07/03 09:20:58;;;;;;;;;0.75;0.75;;;;;27.37;42.76;100685.31;5055456;28;45717;-67
2021/07/03 09:23:32;;;;;;;;;0.75;0.75;;;;;27.37;42.35;100685.31;5055955;28;45455;-66
2021/07/03 09:26:05;;;;;;;;;0.50;0.50;;;;;27.33;42.68;100682.75;5055936;28;45963;-66
2021/07/03 09:28:38;;;;;;;;;0.00;0.00;;;;;27.38;42.41;100689.81;5054540;28;45505;-66
2021/07/03 09:31:04;;;;;;;;;0.00;0.00;;;;;27.39;42.48;100691.56;5053597;28;45859;-66
2021/07/03 09:33:54;;;;;;;;;0.00;0.00;;;;;27.40;42.53;100694.22;5058178;28;45529;-64
2021/07/03 09:36:28;;;;;;;;;0.00;0.00;;;;;27.40;41.96;100696.06;5043440;28;45678;-63
2021/07/03 09:38:58;;;;;;;;;0.67;0.67;;;;;27.43;42.65;100701.34;5037540;28;45903;-63
2021/07/03 09:41:31;;;;;;;;;0.00;0.00;;;;;27.44;42.13;100700.38;5056027;28;45452;-63
2021/07/03 09:44:05;;;;;;;;;0.25;0.25;;;;;27.45;42.22;100693.94;5056593;28;45636;-63
2021/07/03 09:46:33;;;;;;;;;0.75;0.75;;;;;27.46;42.64;100698.44;5055516;28;45413;-64
2021/07/03 09:49:13;;;;;;;;;0.00;0.00;;;;;27.47;42.80;100698.38;5038544;28;45561;-63
2021/07/03 09:51:48;;;;;;;;;0.00;0.00;;;;;27.48;42.80;100696.50;5056794;28;45410;-63
2021/07/03 09:54:18;;;;;;;;;0.00;0.00;;;;;27.49;42.81;100695.53;5038202;28;45438;-62
2021/07/03 09:56:44;;;;;;;;;0.50;0.50;;;;;27.49;42.63;100704.63;5056111;28;45571;-63
2021/07/03 09:59:10;;;;;;;;;1.00;1.00;;;;;27.49;42.12;100696.44;5038086;28;45433;-64
2021/07/03 10:01:40;;;;;;;;;0.00;0.00;;;;;27.52;42.61;100703.56;5056187;28;45596;-63
2021/07/03 10:04:07;;;;;;;;;1.75;1.75;;;;;27.52;42.36;100698.97;5056175;28;45643;-62
2021/07/03 10:06:41;;;;;;;;;1.75;0.00;;;;;27.53;42.30;100695.28;5037673;28;47328;-62
2021/07/03 10:09:21;;;;;;;;;0.00;0.00;;;;;27.56;42.57;100699.69;5055804;28;45428;-61
2021/07/03 10:11:51;;;;;;;;;1.25;1.00;;;;;27.54;42.50;100691.56;5037852;28;45532;-62
2021/07/03 10:14:19;;;;;;;;;0.00;0.00;;;;;27.58;42.61;100694.13;5056073;28;45437;-62
2021/07/03 10:16:45;;;;;;;;;0.75;0.75;;;;;27.61;42.69;100689.38;5037760;28;45726;-63
2021/07/03 10:19:14;;;;;;;;;1.00;1.00;;;;;27.65;42.84;100687.31;5055878;28;45731;-62
2021/07/03 10:21:43;;;;;;;;;0.00;0.00;;;;;27.66;42.57;100689.97;5037733;28;45478;-62
2021/07/03 10:24:21;;;;;;;;;1.75;1.75;;;;;27.67;43.20;100686.28;5037455;28;45553;-63
2021/07/03 10:26:50;;;;;;;;;0.75;0.00;;;;;27.71;43.08;100681.50;5055573;28;45487;-63
2021/07/03 10:29:21;;;;;;;;;0.00;0.00;;;;;27.72;43.04;100684.16;5055491;28;45706;-63
2021/07/03 10:31:50;;;;;;;;;0.25;0.25;;;;;27.76;43.14;100693.06;5055201;28;45481;-63
2021/07/03 10:34:29;;;;;;;;;0.75;0.75;;;;;27.78;43.02;100687.50;5055827;28;45466;-62
2021/07/03 10:37:00;;;;;;;;;1.50;0.50;;;;;27.79;43.13;100687.41;5055114;28;45724;-62
2021/07/03 10:39:30;;;;;;;;;0.50;0.50;;;;;27.79;43.45;100690.13;5035621;28;45388;-61
2021/07/03 10:41:56;;;;;;;;;0.75;0.75;;;;;27.77;42.99;100688.47;5055611;28;45491;-62
2021/07/03 10:44:22;;;;;;;;;0.00;0.00;;;;;27.82;42.90;100683.63;5055453;28;44800;-62
2021/07/03 10:46:48;;;;;;;;;0.00;0.00;;;;;27.85;43.33;100689.78;5054876;28;46090;-62
2021/07/03 10:49:30;;;;;;;;;0.25;0.25;;;;;27.87;43.00;100689.72;5055469;28;45690;-62
2021/07/03 10:51:57;;;;;;;;;0.75;0.75;;;;;27.88;42.88;100684.16;5055443;28;45788;-62
2021/07/03 10:54:24;;;;;;;;;0.25;0.25;;;;;27.89;42.58;100691.38;5055313;28;45529;-62
2021/07/03 10:57:00;;;;;;;;;0.75;0.75;;;;;27.90;42.52;100684.97;5054862;28;45441;-61
2021/07/03 10:59:28;;;;;;;;;0.33;0.33;;;;;27.92;43.17;100687.59;5055187;28;45484;-61
2021/07/03 11:02:04;;;;;;;;;0.00;0.00;;;;;27.91;42.73;100680.38;5054824;28;45449;-61
2021/07/03 11:04:44;;;;;;;;;1.00;0.25;;;;;27.95;42.87;100676.47;5054772;28;45698;-61
2021/07/03 11:07:12;;;;;;;;;1.00;1.00;;;;;27.96;41.98;100675.53;5054412;28;46140;-61
2021/07/03 11:09:38;;;;;;;;;0.00;0.00;;;;;27.99;42.80;100677.19;5036336;28;45883;-62
2021/07/03 11:12:30;;;;;;;;;0.50;0.50;;;;;28.02;42.38;100680.63;5055193;28;45412;-63
2021/07/03 11:14:57;;;;;;;;;0.00;0.00;;;;;28.03;42.65;100676.91;5050251;28;45404;-62
2021/07/03 11:17:26;;;;;;;;;0.00;0.00;;;;;28.06;42.14;100668.53;5054585;28;45697;-63
2021/07/03 11:19:54;;;;;;;;;1.00;1.00;;;;;28.09;42.64;100673.78;5054727;28;45483;-62
2021/07/03 11:22:22;;;;;;;;;0.00;0.00;;;;;28.13;42.65;100671.75;5054825;28;45448;-64
2021/07/03 11:24:49;;;;;;;;;0.00;0.00;;;;;28.16;42.67;100668.84;5054668;28;45434;-63